sensor_id;sensor_type;location;lat;lon;timestamp;P1;durP1;ratioP1;P2;durP2;ratioP2
77409;SDS011;66481;51.332;22.804;2023-03-01T00:02:01;95.20;;;37.42;;
77409;SDS011;66481;51.332;22.804;2023-03-01T00:06:02;91.38;;;35.95;;
77409;SDS011;66481;51.332;22.804;2023-03-01T00:10:05;96.10;;;36.42;;
77409;SDS011;66481;51.332;22.804;2023-03-01T00:14:07;92.15;;;38.45;;
77409;SDS011;66481;51.332;22.804;2023-03-01T00:18:08;78.50;;;34.45;;
77409;SDS011;66481;51.332;22.804;2023-03-01T00:22:10;91.00;;;34.67;;
77409;SDS011;66481;51.332;22.804;2023-03-01T00:26:12;79.13;;;32.42;;
77409;SDS011;66481;51.332;22.804;2023-03-01T00:30:14;78.35;;;30.30;;
77409;SDS011;66481;51.332;22.804;2023-03-01T00:34:16;78.13;;;33.58;;
77409;SDS011;66481;51.332;22.804;2023-03-01T00:38:17;78.15;;;34.83;;
77409;SDS011;66481;51.332;22.804;2023-03-01T00:42:19;69.75;;;32.45;;
77409;SDS011;66481;51.332;22.804;2023-03-01T00:46:22;87.80;;;32.88;;
77409;SDS011;66481;51.332;22.804;2023-03-01T00:50:27;65.57;;;31.17;;
77409;SDS011;66481;51.332;22.804;2023-03-01T00:54:28;65.03;;;32.97;;
77409;SDS011;66481;51.332;22.804;2023-03-01T00:58:29;69.65;;;30.90;;
77409;SDS011;66481;51.332;22.804;2023-03-01T01:02:32;71.93;;;33.95;;
77409;SDS011;66481;51.332;22.804;2023-03-01T01:06:38;73.30;;;32.92;;
77409;SDS011;66481;51.332;22.804;2023-03-01T01:10:43;93.65;;;38.40;;
77409;SDS011;66481;51.332;22.804;2023-03-01T01:14:45;85.60;;;32.83;;
77409;SDS011;66481;51.332;22.804;2023-03-01T01:18:46;80.85;;;32.35;;
77409;SDS011;66481;51.332;22.804;2023-03-01T01:22:48;67.93;;;31.10;;
77409;SDS011;66481;51.332;22.804;2023-03-01T01:26:50;70.43;;;30.85;;
77409;SDS011;66481;51.332;22.804;2023-03-01T01:30:51;64.90;;;29.92;;
77409;SDS011;66481;51.332;22.804;2023-03-01T01:34:55;72.13;;;31.73;;
77409;SDS011;66481;51.332;22.804;2023-03-01T01:38:57;68.05;;;28.85;;
77409;SDS011;66481;51.332;22.804;2023-03-01T01:42:58;64.15;;;28.58;;
77409;SDS011;66481;51.332;22.804;2023-03-01T01:47:18;63.83;;;28.45;;
77409;SDS011;66481;51.332;22.804;2023-03-01T01:56:44;58.63;;;26.13;;
77409;SDS011;66481;51.332;22.804;2023-03-01T02:00:53;62.42;;;27.00;;
77409;SDS011;66481;51.332;22.804;2023-03-01T02:05:03;65.78;;;29.15;;
77409;SDS011;66481;51.332;22.804;2023-03-01T02:09:19;66.40;;;28.58;;
77409;SDS011;66481;51.332;22.804;2023-03-01T02:13:23;61.65;;;27.33;;
77409;SDS011;66481;51.332;22.804;2023-03-01T02:17:24;64.30;;;29.35;;
77409;SDS011;66481;51.332;22.804;2023-03-01T02:30:01;63.00;;;25.27;;
77409;SDS011;66481;51.332;22.804;2023-03-01T02:34:03;56.22;;;27.05;;
77409;SDS011;66481;51.332;22.804;2023-03-01T02:38:06;58.83;;;25.85;;
77409;SDS011;66481;51.332;22.804;2023-03-01T02:42:11;63.92;;;26.27;;
77409;SDS011;66481;51.332;22.804;2023-03-01T02:46:23;52.65;;;23.30;;
77409;SDS011;66481;51.332;22.804;2023-03-01T02:58:31;45.80;;;21.67;;
77409;SDS011;66481;51.332;22.804;2023-03-01T03:02:41;55.28;;;27.00;;
77409;SDS011;66481;51.332;22.804;2023-03-01T03:06:43;50.65;;;20.38;;
77409;SDS011;66481;51.332;22.804;2023-03-01T03:10:46;47.35;;;20.10;;
77409;SDS011;66481;51.332;22.804;2023-03-01T03:14:47;50.13;;;21.92;;
77409;SDS011;66481;51.332;22.804;2023-03-01T03:18:49;44.47;;;22.50;;
77409;SDS011;66481;51.332;22.804;2023-03-01T03:22:52;50.60;;;23.63;;
77409;SDS011;66481;51.332;22.804;2023-03-01T03:26:55;44.03;;;19.17;;
77409;SDS011;66481;51.332;22.804;2023-03-01T03:30:56;58.50;;;27.52;;
77409;SDS011;66481;51.332;22.804;2023-03-01T03:34:59;61.50;;;27.98;;
77409;SDS011;66481;51.332;22.804;2023-03-01T03:39:00;50.58;;;24.17;;
77409;SDS011;66481;51.332;22.804;2023-03-01T03:43:03;52.47;;;25.23;;
77409;SDS011;66481;51.332;22.804;2023-03-01T03:47:05;55.03;;;24.05;;
77409;SDS011;66481;51.332;22.804;2023-03-01T03:51:06;54.55;;;24.92;;
77409;SDS011;66481;51.332;22.804;2023-03-01T03:55:11;47.92;;;22.52;;
77409;SDS011;66481;51.332;22.804;2023-03-01T04:04:33;54.22;;;22.25;;
77409;SDS011;66481;51.332;22.804;2023-03-01T04:08:35;53.92;;;24.35;;
77409;SDS011;66481;51.332;22.804;2023-03-01T04:12:36;56.42;;;26.40;;
77409;SDS011;66481;51.332;22.804;2023-03-01T04:16:37;52.70;;;23.60;;
77409;SDS011;66481;51.332;22.804;2023-03-01T04:20:38;49.47;;;23.92;;
77409;SDS011;66481;51.332;22.804;2023-03-01T04:24:39;45.13;;;20.33;;
77409;SDS011;66481;51.332;22.804;2023-03-01T04:28:41;44.88;;;18.10;;
77409;SDS011;66481;51.332;22.804;2023-03-01T04:32:46;44.38;;;20.30;;
77409;SDS011;66481;51.332;22.804;2023-03-01T04:36:48;42.17;;;19.42;;
77409;SDS011;66481;51.332;22.804;2023-03-01T04:40:49;46.85;;;19.52;;
77409;SDS011;66481;51.332;22.804;2023-03-01T04:44:50;44.97;;;18.85;;
77409;SDS011;66481;51.332;22.804;2023-03-01T04:48:52;39.20;;;18.33;;
77409;SDS011;66481;51.332;22.804;2023-03-01T04:52:53;43.67;;;19.48;;
77409;SDS011;66481;51.332;22.804;2023-03-01T04:56:56;43.97;;;18.90;;
77409;SDS011;66481;51.332;22.804;2023-03-01T05:00:58;45.00;;;21.52;;
77409;SDS011;66481;51.332;22.804;2023-03-01T05:04:59;38.00;;;18.85;;
77409;SDS011;66481;51.332;22.804;2023-03-01T05:09:00;47.70;;;23.13;;
77409;SDS011;66481;51.332;22.804;2023-03-01T05:18:18;41.85;;;18.30;;
77409;SDS011;66481;51.332;22.804;2023-03-01T05:22:20;38.45;;;19.63;;
77409;SDS011;66481;51.332;22.804;2023-03-01T05:26:22;39.38;;;17.83;;
77409;SDS011;66481;51.332;22.804;2023-03-01T05:30:28;45.97;;;20.52;;
77409;SDS011;66481;51.332;22.804;2023-03-01T05:34:30;36.10;;;17.70;;
77409;SDS011;66481;51.332;22.804;2023-03-01T05:38:34;58.03;;;25.70;;
77409;SDS011;66481;51.332;22.804;2023-03-01T05:42:36;54.90;;;25.13;;
77409;SDS011;66481;51.332;22.804;2023-03-01T05:46:37;46.20;;;24.13;;
77409;SDS011;66481;51.332;22.804;2023-03-01T05:50:40;44.85;;;24.05;;
77409;SDS011;66481;51.332;22.804;2023-03-01T05:54:45;54.85;;;26.40;;
77409;SDS011;66481;51.332;22.804;2023-03-01T05:58:47;54.17;;;25.63;;
77409;SDS011;66481;51.332;22.804;2023-03-01T06:02:54;52.75;;;27.85;;
77409;SDS011;66481;51.332;22.804;2023-03-01T06:06:56;48.03;;;25.23;;
77409;SDS011;66481;51.332;22.804;2023-03-01T06:10:57;42.25;;;20.30;;
77409;SDS011;66481;51.332;22.804;2023-03-01T06:14:58;45.38;;;23.42;;
77409;SDS011;66481;51.332;22.804;2023-03-01T06:18:59;40.38;;;21.40;;
77409;SDS011;66481;51.332;22.804;2023-03-01T06:23:00;40.13;;;20.17;;
77409;SDS011;66481;51.332;22.804;2023-03-01T06:27:01;39.47;;;19.98;;
77409;SDS011;66481;51.332;22.804;2023-03-01T06:31:03;37.67;;;19.95;;
77409;SDS011;66481;51.332;22.804;2023-03-01T06:35:04;37.42;;;19.67;;
77409;SDS011;66481;51.332;22.804;2023-03-01T06:39:06;37.33;;;20.48;;
77409;SDS011;66481;51.332;22.804;2023-03-01T06:43:07;32.22;;;20.08;;
77409;SDS011;66481;51.332;22.804;2023-03-01T06:47:08;40.13;;;22.60;;
77409;SDS011;66481;51.332;22.804;2023-03-01T06:51:12;33.40;;;18.80;;
77409;SDS011;66481;51.332;22.804;2023-03-01T06:55:13;31.40;;;18.80;;
77409;SDS011;66481;51.332;22.804;2023-03-01T06:59:14;30.58;;;19.75;;
77409;SDS011;66481;51.332;22.804;2023-03-01T07:03:16;32.90;;;18.55;;
77409;SDS011;66481;51.332;22.804;2023-03-01T07:07:17;30.00;;;17.88;;
77409;SDS011;66481;51.332;22.804;2023-03-01T07:11:18;34.50;;;19.63;;
77409;SDS011;66481;51.332;22.804;2023-03-01T07:15:19;29.95;;;16.58;;
77409;SDS011;66481;51.332;22.804;2023-03-01T07:19:20;27.15;;;14.95;;
77409;SDS011;66481;51.332;22.804;2023-03-01T07:23:22;27.30;;;16.50;;
77409;SDS011;66481;51.332;22.804;2023-03-01T07:27:23;28.23;;;15.57;;
77409;SDS011;66481;51.332;22.804;2023-03-01T07:31:24;29.00;;;17.38;;
77409;SDS011;66481;51.332;22.804;2023-03-01T07:35:28;26.35;;;16.58;;
77409;SDS011;66481;51.332;22.804;2023-03-01T07:39:29;28.10;;;15.65;;
77409;SDS011;66481;51.332;22.804;2023-03-01T07:43:30;23.00;;;14.68;;
77409;SDS011;66481;51.332;22.804;2023-03-01T07:47:32;24.90;;;16.27;;
77409;SDS011;66481;51.332;22.804;2023-03-01T07:51:33;26.75;;;17.15;;
77409;SDS011;66481;51.332;22.804;2023-03-01T07:55:34;26.73;;;15.50;;
77409;SDS011;66481;51.332;22.804;2023-03-01T07:59:36;22.45;;;15.95;;
77409;SDS011;66481;51.332;22.804;2023-03-01T08:03:38;25.80;;;15.07;;
77409;SDS011;66481;51.332;22.804;2023-03-01T08:07:40;23.88;;;15.98;;
77409;SDS011;66481;51.332;22.804;2023-03-01T08:11:41;21.23;;;13.80;;
77409;SDS011;66481;51.332;22.804;2023-03-01T08:15:42;22.92;;;15.65;;
77409;SDS011;66481;51.332;22.804;2023-03-01T08:19:43;24.33;;;14.68;;
77409;SDS011;66481;51.332;22.804;2023-03-01T08:23:45;22.00;;;14.32;;
77409;SDS011;66481;51.332;22.804;2023-03-01T08:27:46;24.48;;;15.15;;
77409;SDS011;66481;51.332;22.804;2023-03-01T08:31:48;23.92;;;15.98;;
77409;SDS011;66481;51.332;22.804;2023-03-01T08:35:49;23.92;;;15.32;;
77409;SDS011;66481;51.332;22.804;2023-03-01T08:39:50;23.25;;;15.15;;
77409;SDS011;66481;51.332;22.804;2023-03-01T08:43:51;21.00;;;14.27;;
77409;SDS011;66481;51.332;22.804;2023-03-01T08:47:53;24.98;;;15.00;;
77409;SDS011;66481;51.332;22.804;2023-03-01T08:51:54;20.73;;;13.00;;
77409;SDS011;66481;51.332;22.804;2023-03-01T08:55:55;24.30;;;13.63;;
77409;SDS011;66481;51.332;22.804;2023-03-01T09:00:01;21.63;;;13.55;;
77409;SDS011;66481;51.332;22.804;2023-03-01T09:04:03;20.48;;;14.13;;
77409;SDS011;66481;51.332;22.804;2023-03-01T09:08:05;24.05;;;14.45;;
77409;SDS011;66481;51.332;22.804;2023-03-01T09:12:06;20.38;;;13.38;;
77409;SDS011;66481;51.332;22.804;2023-03-01T09:16:07;24.02;;;14.63;;
77409;SDS011;66481;51.332;22.804;2023-03-01T09:20:09;25.23;;;15.15;;
77409;SDS011;66481;51.332;22.804;2023-03-01T09:24:14;21.63;;;14.70;;
77409;SDS011;66481;51.332;22.804;2023-03-01T09:28:15;25.17;;;13.60;;
77409;SDS011;66481;51.332;22.804;2023-03-01T09:32:17;48.28;;;23.52;;
77409;SDS011;66481;51.332;22.804;2023-03-01T09:36:19;41.30;;;19.63;;
77409;SDS011;66481;51.332;22.804;2023-03-01T09:40:23;25.52;;;13.68;;
77409;SDS011;66481;51.332;22.804;2023-03-01T09:44:36;24.65;;;14.38;;
77409;SDS011;66481;51.332;22.804;2023-03-01T09:48:59;21.83;;;13.55;;
77409;SDS011;66481;51.332;22.804;2023-03-01T09:53:05;19.42;;;12.52;;
77409;SDS011;66481;51.332;22.804;2023-03-01T10:06:18;22.08;;;13.05;;
77409;SDS011;66481;51.332;22.804;2023-03-01T10:10:43;21.70;;;12.07;;
77409;SDS011;66481;51.332;22.804;2023-03-01T10:18:59;16.38;;;9.43;;
77409;SDS011;66481;51.332;22.804;2023-03-01T10:23:03;19.27;;;10.90;;
77409;SDS011;66481;51.332;22.804;2023-03-01T10:27:07;22.27;;;12.20;;
77409;SDS011;66481;51.332;22.804;2023-03-01T10:31:18;13.45;;;8.32;;
77409;SDS011;66481;51.332;22.804;2023-03-01T10:35:25;14.75;;;8.70;;
77409;SDS011;66481;51.332;22.804;2023-03-01T10:39:29;17.65;;;9.30;;
77409;SDS011;66481;51.332;22.804;2023-03-01T10:43:32;12.90;;;7.22;;
77409;SDS011;66481;51.332;22.804;2023-03-01T10:47:44;14.70;;;7.93;;
77409;SDS011;66481;51.332;22.804;2023-03-01T10:51:47;11.38;;;6.53;;
77409;SDS011;66481;51.332;22.804;2023-03-01T10:55:56;10.05;;;5.57;;
77409;SDS011;66481;51.332;22.804;2023-03-01T11:04:23;8.40;;;5.90;;
77409;SDS011;66481;51.332;22.804;2023-03-01T11:08:34;7.50;;;4.68;;
77409;SDS011;66481;51.332;22.804;2023-03-01T11:12:37;10.20;;;6.70;;
77409;SDS011;66481;51.332;22.804;2023-03-01T11:16:41;7.00;;;4.57;;
77409;SDS011;66481;51.332;22.804;2023-03-01T11:20:44;7.18;;;4.75;;
77409;SDS011;66481;51.332;22.804;2023-03-01T11:24:52;11.38;;;6.15;;
77409;SDS011;66481;51.332;22.804;2023-03-01T11:28:56;9.05;;;5.47;;
77409;SDS011;66481;51.332;22.804;2023-03-01T11:33:03;10.27;;;5.80;;
77409;SDS011;66481;51.332;22.804;2023-03-01T11:37:15;9.32;;;6.80;;
77409;SDS011;66481;51.332;22.804;2023-03-01T11:41:26;10.88;;;6.80;;
77409;SDS011;66481;51.332;22.804;2023-03-01T11:45:43;11.27;;;6.93;;
77409;SDS011;66481;51.332;22.804;2023-03-01T11:50:00;10.32;;;6.55;;
77409;SDS011;66481;51.332;22.804;2023-03-01T12:07:59;10.18;;;5.63;;
77409;SDS011;66481;51.332;22.804;2023-03-01T12:16:26;10.00;;;5.88;;
77409;SDS011;66481;51.332;22.804;2023-03-01T12:47:02;9.32;;;5.38;;
77409;SDS011;66481;51.332;22.804;2023-03-01T12:51:08;9.13;;;6.35;;
77409;SDS011;66481;51.332;22.804;2023-03-01T12:59:42;8.88;;;6.55;;
77409;SDS011;66481;51.332;22.804;2023-03-01T13:12:52;7.22;;;4.22;;
77409;SDS011;66481;51.332;22.804;2023-03-01T13:16:54;7.13;;;3.95;;
77409;SDS011;66481;51.332;22.804;2023-03-01T13:20:55;7.85;;;4.57;;
77409;SDS011;66481;51.332;22.804;2023-03-01T13:25:03;7.00;;;4.53;;
77409;SDS011;66481;51.332;22.804;2023-03-01T13:29:25;7.03;;;4.18;;
77409;SDS011;66481;51.332;22.804;2023-03-01T13:37:29;6.97;;;4.50;;
77409;SDS011;66481;51.332;22.804;2023-03-01T13:56:47;10.05;;;5.68;;
77409;SDS011;66481;51.332;22.804;2023-03-01T14:00:38;8.38;;;4.90;;
77409;SDS011;66481;51.332;22.804;2023-03-01T14:04:40;7.55;;;4.75;;
77409;SDS011;66481;51.332;22.804;2023-03-01T14:08:42;8.88;;;5.68;;
77409;SDS011;66481;51.332;22.804;2023-03-01T14:12:49;8.05;;;5.40;;
77409;SDS011;66481;51.332;22.804;2023-03-01T14:21:30;9.90;;;5.35;;
77409;SDS011;66481;51.332;22.804;2023-03-01T14:25:32;9.40;;;6.20;;
77409;SDS011;66481;51.332;22.804;2023-03-01T14:29:36;12.73;;;6.35;;
77409;SDS011;66481;51.332;22.804;2023-03-01T15:02:47;27.20;;;9.40;;
77409;SDS011;66481;51.332;22.804;2023-03-01T15:06:51;32.05;;;12.35;;
77409;SDS011;66481;51.332;22.804;2023-03-01T15:10:58;36.60;;;12.40;;
77409;SDS011;66481;51.332;22.804;2023-03-01T15:15:22;107.75;;;36.67;;
77409;SDS011;66481;51.332;22.804;2023-03-01T15:19:30;47.45;;;19.02;;
77409;SDS011;66481;51.332;22.804;2023-03-01T15:23:32;28.45;;;12.90;;
77409;SDS011;66481;51.332;22.804;2023-03-01T15:27:33;22.02;;;12.48;;
77409;SDS011;66481;51.332;22.804;2023-03-01T15:31:35;28.27;;;14.65;;
77409;SDS011;66481;51.332;22.804;2023-03-01T15:35:40;40.85;;;20.27;;
77409;SDS011;66481;51.332;22.804;2023-03-01T15:39:55;32.05;;;17.17;;
77409;SDS011;66481;51.332;22.804;2023-03-01T15:43:58;26.17;;;15.07;;
77409;SDS011;66481;51.332;22.804;2023-03-01T15:48:00;22.65;;;13.02;;
77409;SDS011;66481;51.332;22.804;2023-03-01T15:52:13;24.73;;;12.00;;
77409;SDS011;66481;51.332;22.804;2023-03-01T15:56:22;21.75;;;11.40;;
77409;SDS011;66481;51.332;22.804;2023-03-01T16:00:24;34.55;;;16.08;;
77409;SDS011;66481;51.332;22.804;2023-03-01T16:04:25;28.20;;;16.95;;
77409;SDS011;66481;51.332;22.804;2023-03-01T16:08:27;25.38;;;13.68;;
77409;SDS011;66481;51.332;22.804;2023-03-01T16:12:28;22.23;;;13.10;;
77409;SDS011;66481;51.332;22.804;2023-03-01T16:16:29;24.00;;;12.05;;
77409;SDS011;66481;51.332;22.804;2023-03-01T16:20:30;49.78;;;20.65;;
77409;SDS011;66481;51.332;22.804;2023-03-01T16:24:32;47.47;;;21.65;;
77409;SDS011;66481;51.332;22.804;2023-03-01T16:28:33;43.08;;;18.70;;
77409;SDS011;66481;51.332;22.804;2023-03-01T16:32:38;40.72;;;19.23;;
77409;SDS011;66481;51.332;22.804;2023-03-01T16:36:39;36.22;;;17.10;;
77409;SDS011;66481;51.332;22.804;2023-03-01T16:40:46;39.50;;;17.23;;
77409;SDS011;66481;51.332;22.804;2023-03-01T16:44:53;39.83;;;18.02;;
77409;SDS011;66481;51.332;22.804;2023-03-01T16:48:56;39.83;;;17.70;;
77409;SDS011;66481;51.332;22.804;2023-03-01T16:52:57;35.55;;;18.15;;
77409;SDS011;66481;51.332;22.804;2023-03-01T17:02:00;64.97;;;25.60;;
77409;SDS011;66481;51.332;22.804;2023-03-01T17:06:04;114.90;;;39.85;;
77409;SDS011;66481;51.332;22.804;2023-03-01T17:10:08;69.90;;;27.73;;
77409;SDS011;66481;51.332;22.804;2023-03-01T17:14:11;67.80;;;28.20;;
77409;SDS011;66481;51.332;22.804;2023-03-01T17:18:12;76.63;;;33.55;;
77409;SDS011;66481;51.332;22.804;2023-03-01T17:22:14;93.35;;;36.97;;
77409;SDS011;66481;51.332;22.804;2023-03-01T17:26:17;86.53;;;37.92;;
77409;SDS011;66481;51.332;22.804;2023-03-01T17:30:18;120.70;;;53.55;;
77409;SDS011;66481;51.332;22.804;2023-03-01T17:34:21;137.18;;;63.30;;
77409;SDS011;66481;51.332;22.804;2023-03-01T17:38:24;141.98;;;59.60;;
77409;SDS011;66481;51.332;22.804;2023-03-01T17:42:29;100.25;;;43.15;;
77409;SDS011;66481;51.332;22.804;2023-03-01T17:46:30;98.38;;;44.00;;
77409;SDS011;66481;51.332;22.804;2023-03-01T17:50:32;138.43;;;53.00;;
77409;SDS011;66481;51.332;22.804;2023-03-01T17:54:38;338.38;;;136.55;;
77409;SDS011;66481;51.332;22.804;2023-03-01T17:58:40;151.32;;;58.53;;
77409;SDS011;66481;51.332;22.804;2023-03-01T18:02:42;109.53;;;42.58;;
77409;SDS011;66481;51.332;22.804;2023-03-01T18:06:45;97.55;;;43.72;;
77409;SDS011;66481;51.332;22.804;2023-03-01T18:10:47;99.97;;;40.00;;
77409;SDS011;66481;51.332;22.804;2023-03-01T18:14:48;94.45;;;41.15;;
77409;SDS011;66481;51.332;22.804;2023-03-01T18:18:53;95.13;;;38.42;;
77409;SDS011;66481;51.332;22.804;2023-03-01T18:22:56;81.10;;;37.50;;
77409;SDS011;66481;51.332;22.804;2023-03-01T18:26:57;84.90;;;34.97;;
77409;SDS011;66481;51.332;22.804;2023-03-01T18:30:59;84.03;;;40.78;;
77409;SDS011;66481;51.332;22.804;2023-03-01T18:35:05;90.60;;;39.35;;
77409;SDS011;66481;51.332;22.804;2023-03-01T18:39:07;82.68;;;36.78;;
77409;SDS011;66481;51.332;22.804;2023-03-01T18:43:09;94.60;;;45.17;;
77409;SDS011;66481;51.332;22.804;2023-03-01T18:47:10;85.32;;;39.50;;
77409;SDS011;66481;51.332;22.804;2023-03-01T18:51:13;87.15;;;39.15;;
77409;SDS011;66481;51.332;22.804;2023-03-01T18:55:19;84.75;;;41.47;;
77409;SDS011;66481;51.332;22.804;2023-03-01T18:59:21;131.20;;;59.38;;
77409;SDS011;66481;51.332;22.804;2023-03-01T19:03:27;107.35;;;45.13;;
77409;SDS011;66481;51.332;22.804;2023-03-01T19:07:28;95.07;;;39.83;;
77409;SDS011;66481;51.332;22.804;2023-03-01T19:11:29;103.30;;;45.50;;
77409;SDS011;66481;51.332;22.804;2023-03-01T19:15:32;89.35;;;40.58;;
77409;SDS011;66481;51.332;22.804;2023-03-01T19:19:34;93.40;;;44.53;;
77409;SDS011;66481;51.332;22.804;2023-03-01T19:23:36;90.60;;;41.95;;
77409;SDS011;66481;51.332;22.804;2023-03-01T19:27:38;92.85;;;41.88;;
77409;SDS011;66481;51.332;22.804;2023-03-01T19:31:40;84.57;;;41.17;;
77409;SDS011;66481;51.332;22.804;2023-03-01T19:35:42;83.93;;;38.55;;
77409;SDS011;66481;51.332;22.804;2023-03-01T19:39:43;98.60;;;47.35;;
77409;SDS011;66481;51.332;22.804;2023-03-01T19:43:45;93.65;;;41.97;;
77409;SDS011;66481;51.332;22.804;2023-03-01T19:47:47;92.55;;;39.95;;
77409;SDS011;66481;51.332;22.804;2023-03-01T19:51:50;83.80;;;38.05;;
77409;SDS011;66481;51.332;22.804;2023-03-01T19:55:59;93.78;;;43.17;;
77409;SDS011;66481;51.332;22.804;2023-03-01T20:00:02;103.03;;;45.50;;
77409;SDS011;66481;51.332;22.804;2023-03-01T20:04:04;102.13;;;42.15;;
77409;SDS011;66481;51.332;22.804;2023-03-01T20:08:06;93.13;;;41.28;;
77409;SDS011;66481;51.332;22.804;2023-03-01T20:12:09;103.07;;;46.97;;
77409;SDS011;66481;51.332;22.804;2023-03-01T20:16:11;102.47;;;45.90;;
77409;SDS011;66481;51.332;22.804;2023-03-01T20:20:15;105.93;;;44.38;;
77409;SDS011;66481;51.332;22.804;2023-03-01T20:24:16;105.68;;;48.03;;
77409;SDS011;66481;51.332;22.804;2023-03-01T20:28:18;123.63;;;52.75;;
77409;SDS011;66481;51.332;22.804;2023-03-01T20:32:20;100.45;;;49.15;;
77409;SDS011;66481;51.332;22.804;2023-03-01T20:36:21;91.22;;;37.70;;
77409;SDS011;66481;51.332;22.804;2023-03-01T20:40:22;89.45;;;36.97;;
77409;SDS011;66481;51.332;22.804;2023-03-01T20:44:27;108.25;;;45.78;;
77409;SDS011;66481;51.332;22.804;2023-03-01T20:48:32;96.80;;;41.33;;
77409;SDS011;66481;51.332;22.804;2023-03-01T21:08:37;128.60;;;53.40;;
77409;SDS011;66481;51.332;22.804;2023-03-01T21:12:39;115.70;;;48.85;;
77409;SDS011;66481;51.332;22.804;2023-03-01T21:16:41;109.70;;;53.20;;
77409;SDS011;66481;51.332;22.804;2023-03-01T21:20:45;112.85;;;54.08;;
77409;SDS011;66481;51.332;22.804;2023-03-01T21:24:46;119.32;;;54.42;;
77409;SDS011;66481;51.332;22.804;2023-03-01T21:28:49;116.53;;;54.17;;
77409;SDS011;66481;51.332;22.804;2023-03-01T21:32:54;117.30;;;52.05;;
77409;SDS011;66481;51.332;22.804;2023-03-01T21:36:57;112.15;;;53.28;;
77409;SDS011;66481;51.332;22.804;2023-03-01T21:41:01;123.90;;;48.53;;
77409;SDS011;66481;51.332;22.804;2023-03-01T21:45:04;111.68;;;51.65;;
77409;SDS011;66481;51.332;22.804;2023-03-01T21:49:08;118.10;;;49.10;;
77409;SDS011;66481;51.332;22.804;2023-03-01T21:53:10;108.53;;;49.40;;
77409;SDS011;66481;51.332;22.804;2023-03-01T21:57:12;124.68;;;54.95;;
77409;SDS011;66481;51.332;22.804;2023-03-01T22:01:14;119.57;;;53.67;;
77409;SDS011;66481;51.332;22.804;2023-03-01T22:05:20;118.82;;;55.03;;
77409;SDS011;66481;51.332;22.804;2023-03-01T22:09:22;145.95;;;62.58;;
77409;SDS011;66481;51.332;22.804;2023-03-01T22:13:24;149.43;;;59.88;;
77409;SDS011;66481;51.332;22.804;2023-03-01T22:17:25;138.43;;;57.38;;
77409;SDS011;66481;51.332;22.804;2023-03-01T22:21:26;136.75;;;60.58;;
77409;SDS011;66481;51.332;22.804;2023-03-01T22:25:28;131.32;;;59.40;;
77409;SDS011;66481;51.332;22.804;2023-03-01T22:29:30;123.85;;;55.28;;
77409;SDS011;66481;51.332;22.804;2023-03-01T22:33:31;141.80;;;59.28;;
77409;SDS011;66481;51.332;22.804;2023-03-01T22:37:32;132.93;;;62.78;;
77409;SDS011;66481;51.332;22.804;2023-03-01T22:41:37;129.98;;;60.38;;
77409;SDS011;66481;51.332;22.804;2023-03-01T22:45:42;137.68;;;60.22;;
77409;SDS011;66481;51.332;22.804;2023-03-01T22:49:46;135.82;;;59.50;;
77409;SDS011;66481;51.332;22.804;2023-03-01T22:53:47;125.45;;;54.42;;
77409;SDS011;66481;51.332;22.804;2023-03-01T22:57:49;132.45;;;59.65;;
77409;SDS011;66481;51.332;22.804;2023-03-01T23:01:52;125.03;;;58.58;;
77409;SDS011;66481;51.332;22.804;2023-03-01T23:05:53;131.80;;;57.40;;
77409;SDS011;66481;51.332;22.804;2023-03-01T23:09:54;125.35;;;57.45;;
77409;SDS011;66481;51.332;22.804;2023-03-01T23:13:57;116.55;;;51.67;;
77409;SDS011;66481;51.332;22.804;2023-03-01T23:17:58;106.70;;;50.05;;
77409;SDS011;66481;51.332;22.804;2023-03-01T23:21:59;110.13;;;53.47;;
77409;SDS011;66481;51.332;22.804;2023-03-01T23:26:00;110.38;;;46.97;;
77409;SDS011;66481;51.332;22.804;2023-03-01T23:30:02;106.47;;;49.67;;
77409;SDS011;66481;51.332;22.804;2023-03-01T23:34:04;109.32;;;49.83;;
77409;SDS011;66481;51.332;22.804;2023-03-01T23:38:05;108.10;;;50.60;;
77409;SDS011;66481;51.332;22.804;2023-03-01T23:42:06;107.32;;;47.25;;
77409;SDS011;66481;51.332;22.804;2023-03-01T23:46:07;100.60;;;47.97;;
77409;SDS011;66481;51.332;22.804;2023-03-01T23:50:13;96.95;;;47.63;;
77409;SDS011;66481;51.332;22.804;2023-03-01T23:54:15;98.35;;;48.22;;
77409;SDS011;66481;51.332;22.804;2023-03-01T23:58:20;92.53;;;44.45;;
